sensor_id;sensor_type;location;lat;lon;timestamp;P1;durP1;ratioP1;P2;durP2;ratioP2
8889;SDS011;4481;43.406;24.454;2023-04-08T00:00:49;29.53;;;24.90;;
8889;SDS011;4481;43.406;24.454;2023-04-08T00:03:15;32.60;;;25.13;;
8889;SDS011;4481;43.406;24.454;2023-04-08T00:05:42;27.70;;;23.00;;
8889;SDS011;4481;43.406;24.454;2023-04-08T00:08:08;32.73;;;24.10;;
8889;SDS011;4481;43.406;24.454;2023-04-08T00:10:34;33.83;;;25.60;;
8889;SDS011;4481;43.406;24.454;2023-04-08T00:13:01;30.97;;;24.17;;
8889;SDS011;4481;43.406;24.454;2023-04-08T00:15:27;30.83;;;24.27;;
8889;SDS011;4481;43.406;24.454;2023-04-08T00:17:53;32.87;;;22.97;;
8889;SDS011;4481;43.406;24.454;2023-04-08T00:20:20;32.37;;;23.90;;
8889;SDS011;4481;43.406;24.454;2023-04-08T00:22:47;29.63;;;22.70;;
8889;SDS011;4481;43.406;24.454;2023-04-08T00:25:13;30.03;;;23.70;;
8889;SDS011;4481;43.406;24.454;2023-04-08T00:27:39;28.90;;;22.90;;
8889;SDS011;4481;43.406;24.454;2023-04-08T00:30:06;29.97;;;23.17;;
8889;SDS011;4481;43.406;24.454;2023-04-08T00:32:33;31.07;;;23.13;;
8889;SDS011;4481;43.406;24.454;2023-04-08T00:35:00;29.73;;;23.00;;
8889;SDS011;4481;43.406;24.454;2023-04-08T00:37:27;33.33;;;22.70;;
8889;SDS011;4481;43.406;24.454;2023-04-08T00:39:53;26.40;;;22.63;;
8889;SDS011;4481;43.406;24.454;2023-04-08T00:42:19;35.93;;;23.63;;
8889;SDS011;4481;43.406;24.454;2023-04-08T00:44:45;29.37;;;23.43;;
8889;SDS011;4481;43.406;24.454;2023-04-08T00:47:12;33.10;;;24.20;;
8889;SDS011;4481;43.406;24.454;2023-04-08T00:49:39;32.23;;;23.83;;
8889;SDS011;4481;43.406;24.454;2023-04-08T00:52:06;30.97;;;24.60;;
8889;SDS011;4481;43.406;24.454;2023-04-08T00:54:32;32.43;;;24.07;;
8889;SDS011;4481;43.406;24.454;2023-04-08T00:56:58;35.17;;;23.73;;
8889;SDS011;4481;43.406;24.454;2023-04-08T00:59:25;33.87;;;24.77;;
8889;SDS011;4481;43.406;24.454;2023-04-08T01:01:54;34.17;;;23.63;;
8889;SDS011;4481;43.406;24.454;2023-04-08T01:04:27;32.37;;;23.90;;
8889;SDS011;4481;43.406;24.454;2023-04-08T01:06:58;30.37;;;22.10;;
8889;SDS011;4481;43.406;24.454;2023-04-08T01:09:32;31.30;;;22.93;;
8889;SDS011;4481;43.406;24.454;2023-04-08T01:12:03;31.80;;;22.10;;
8889;SDS011;4481;43.406;24.454;2023-04-08T01:14:33;29.90;;;21.63;;
8889;SDS011;4481;43.406;24.454;2023-04-08T01:17:03;28.27;;;20.33;;
8889;SDS011;4481;43.406;24.454;2023-04-08T01:19:32;28.20;;;20.27;;
8889;SDS011;4481;43.406;24.454;2023-04-08T01:22:02;26.53;;;19.90;;
8889;SDS011;4481;43.406;24.454;2023-04-08T01:24:38;26.70;;;19.80;;
8889;SDS011;4481;43.406;24.454;2023-04-08T01:27:08;24.87;;;18.90;;
8889;SDS011;4481;43.406;24.454;2023-04-08T01:29:35;28.20;;;19.23;;
8889;SDS011;4481;43.406;24.454;2023-04-08T01:32:02;25.30;;;18.93;;
8889;SDS011;4481;43.406;24.454;2023-04-08T01:34:32;26.67;;;20.63;;
8889;SDS011;4481;43.406;24.454;2023-04-08T01:37:00;26.07;;;20.43;;
8889;SDS011;4481;43.406;24.454;2023-04-08T01:39:27;23.77;;;19.07;;
8889;SDS011;4481;43.406;24.454;2023-04-08T01:41:55;30.27;;;20.00;;
8889;SDS011;4481;43.406;24.454;2023-04-08T01:44:23;37.00;;;20.77;;
8889;SDS011;4481;43.406;24.454;2023-04-08T01:46:51;28.07;;;22.53;;
8889;SDS011;4481;43.406;24.454;2023-04-08T01:49:18;27.73;;;21.67;;
8889;SDS011;4481;43.406;24.454;2023-04-08T01:51:47;27.33;;;20.50;;
8889;SDS011;4481;43.406;24.454;2023-04-08T01:54:13;29.47;;;21.00;;
8889;SDS011;4481;43.406;24.454;2023-04-08T01:56:40;29.37;;;20.57;;
8889;SDS011;4481;43.406;24.454;2023-04-08T01:59:08;25.67;;;20.47;;
8889;SDS011;4481;43.406;24.454;2023-04-08T02:01:37;26.43;;;20.57;;
8889;SDS011;4481;43.406;24.454;2023-04-08T02:04:04;28.27;;;19.53;;
8889;SDS011;4481;43.406;24.454;2023-04-08T02:06:30;26.80;;;19.47;;
8889;SDS011;4481;43.406;24.454;2023-04-08T02:08:57;26.60;;;19.70;;
8889;SDS011;4481;43.406;24.454;2023-04-08T02:11:24;25.53;;;19.80;;
8889;SDS011;4481;43.406;24.454;2023-04-08T02:13:50;29.27;;;22.17;;
8889;SDS011;4481;43.406;24.454;2023-04-08T02:16:20;23.73;;;20.40;;
8889;SDS011;4481;43.406;24.454;2023-04-08T02:18:51;26.93;;;20.90;;
8889;SDS011;4481;43.406;24.454;2023-04-08T02:21:25;28.30;;;21.23;;
8889;SDS011;4481;43.406;24.454;2023-04-08T02:23:57;26.97;;;20.37;;
8889;SDS011;4481;43.406;24.454;2023-04-08T02:26:24;26.57;;;20.90;;
8889;SDS011;4481;43.406;24.454;2023-04-08T02:28:51;27.63;;;21.00;;
8889;SDS011;4481;43.406;24.454;2023-04-08T02:31:19;29.90;;;21.37;;
8889;SDS011;4481;43.406;24.454;2023-04-08T02:33:46;26.83;;;20.00;;
8889;SDS011;4481;43.406;24.454;2023-04-08T02:36:16;26.57;;;19.77;;
8889;SDS011;4481;43.406;24.454;2023-04-08T02:38:46;26.47;;;21.63;;
8889;SDS011;4481;43.406;24.454;2023-04-08T02:41:12;24.97;;;19.87;;
8889;SDS011;4481;43.406;24.454;2023-04-08T02:43:40;30.30;;;21.03;;
8889;SDS011;4481;43.406;24.454;2023-04-08T02:46:06;28.27;;;21.37;;
8889;SDS011;4481;43.406;24.454;2023-04-08T02:48:35;30.80;;;20.63;;
8889;SDS011;4481;43.406;24.454;2023-04-08T02:51:01;29.33;;;20.57;;
8889;SDS011;4481;43.406;24.454;2023-04-08T02:53:28;28.23;;;20.67;;
8889;SDS011;4481;43.406;24.454;2023-04-08T02:55:54;26.60;;;20.93;;
8889;SDS011;4481;43.406;24.454;2023-04-08T02:58:20;29.13;;;21.20;;
8889;SDS011;4481;43.406;24.454;2023-04-08T03:00:46;27.87;;;21.33;;
8889;SDS011;4481;43.406;24.454;2023-04-08T03:03:12;28.73;;;21.47;;
8889;SDS011;4481;43.406;24.454;2023-04-08T03:05:39;27.73;;;21.60;;
8889;SDS011;4481;43.406;24.454;2023-04-08T03:08:05;30.97;;;21.37;;
8889;SDS011;4481;43.406;24.454;2023-04-08T03:10:32;25.63;;;18.83;;
8889;SDS011;4481;43.406;24.454;2023-04-08T03:12:58;24.63;;;18.70;;
8889;SDS011;4481;43.406;24.454;2023-04-08T03:15:24;22.27;;;18.10;;
8889;SDS011;4481;43.406;24.454;2023-04-08T03:17:50;22.93;;;18.53;;
8889;SDS011;4481;43.406;24.454;2023-04-08T03:20:16;27.80;;;19.40;;
8889;SDS011;4481;43.406;24.454;2023-04-08T03:22:42;26.10;;;18.93;;
8889;SDS011;4481;43.406;24.454;2023-04-08T03:25:08;23.37;;;19.03;;
8889;SDS011;4481;43.406;24.454;2023-04-08T03:27:36;24.40;;;19.90;;
8889;SDS011;4481;43.406;24.454;2023-04-08T03:30:02;24.70;;;20.13;;
8889;SDS011;4481;43.406;24.454;2023-04-08T03:32:29;27.33;;;20.00;;
8889;SDS011;4481;43.406;24.454;2023-04-08T03:34:55;23.60;;;19.13;;
8889;SDS011;4481;43.406;24.454;2023-04-08T03:37:21;24.57;;;19.53;;
8889;SDS011;4481;43.406;24.454;2023-04-08T03:39:47;25.37;;;18.90;;
8889;SDS011;4481;43.406;24.454;2023-04-08T03:42:13;26.60;;;19.63;;
8889;SDS011;4481;43.406;24.454;2023-04-08T03:44:40;26.33;;;19.93;;
8889;SDS011;4481;43.406;24.454;2023-04-08T03:47:06;26.33;;;19.67;;
8889;SDS011;4481;43.406;24.454;2023-04-08T03:49:33;31.30;;;21.20;;
8889;SDS011;4481;43.406;24.454;2023-04-08T03:51:59;27.83;;;20.93;;
8889;SDS011;4481;43.406;24.454;2023-04-08T03:54:25;27.60;;;21.30;;
8889;SDS011;4481;43.406;24.454;2023-04-08T03:56:51;27.63;;;20.93;;
8889;SDS011;4481;43.406;24.454;2023-04-08T03:59:17;26.17;;;20.10;;
8889;SDS011;4481;43.406;24.454;2023-04-08T04:01:44;23.87;;;20.17;;
8889;SDS011;4481;43.406;24.454;2023-04-08T04:04:10;25.03;;;19.60;;
8889;SDS011;4481;43.406;24.454;2023-04-08T04:06:36;27.63;;;19.47;;
8889;SDS011;4481;43.406;24.454;2023-04-08T04:09:02;24.17;;;20.60;;
8889;SDS011;4481;43.406;24.454;2023-04-08T04:11:28;27.13;;;21.10;;
8889;SDS011;4481;43.406;24.454;2023-04-08T04:13:54;31.47;;;22.70;;
8889;SDS011;4481;43.406;24.454;2023-04-08T04:16:21;31.30;;;22.20;;
8889;SDS011;4481;43.406;24.454;2023-04-08T04:18:48;30.43;;;22.43;;
8889;SDS011;4481;43.406;24.454;2023-04-08T04:21:14;28.97;;;22.27;;
8889;SDS011;4481;43.406;24.454;2023-04-08T04:23:40;28.47;;;21.13;;
8889;SDS011;4481;43.406;24.454;2023-04-08T04:26:07;32.80;;;22.73;;
8889;SDS011;4481;43.406;24.454;2023-04-08T04:28:34;30.07;;;22.07;;
8889;SDS011;4481;43.406;24.454;2023-04-08T04:31:00;34.43;;;23.87;;
8889;SDS011;4481;43.406;24.454;2023-04-08T04:33:26;34.23;;;23.87;;
8889;SDS011;4481;43.406;24.454;2023-04-08T04:35:53;40.67;;;26.23;;
8889;SDS011;4481;43.406;24.454;2023-04-08T04:38:20;34.40;;;26.70;;
8889;SDS011;4481;43.406;24.454;2023-04-08T04:40:46;41.53;;;27.13;;
8889;SDS011;4481;43.406;24.454;2023-04-08T04:43:12;34.20;;;24.97;;
8889;SDS011;4481;43.406;24.454;2023-04-08T04:45:38;30.60;;;23.63;;
8889;SDS011;4481;43.406;24.454;2023-04-08T04:48:04;27.80;;;22.20;;
8889;SDS011;4481;43.406;24.454;2023-04-08T04:50:31;33.13;;;23.67;;
8889;SDS011;4481;43.406;24.454;2023-04-08T04:52:58;29.13;;;21.90;;
8889;SDS011;4481;43.406;24.454;2023-04-08T04:55:24;27.53;;;22.63;;
8889;SDS011;4481;43.406;24.454;2023-04-08T04:57:50;28.70;;;21.17;;
8889;SDS011;4481;43.406;24.454;2023-04-08T05:00:16;30.93;;;21.63;;
8889;SDS011;4481;43.406;24.454;2023-04-08T05:02:42;25.80;;;20.83;;
8889;SDS011;4481;43.406;24.454;2023-04-08T05:05:09;26.57;;;21.60;;
8889;SDS011;4481;43.406;24.454;2023-04-08T05:07:35;26.93;;;20.83;;
8889;SDS011;4481;43.406;24.454;2023-04-08T05:10:02;27.27;;;21.23;;
8889;SDS011;4481;43.406;24.454;2023-04-08T05:12:29;28.20;;;22.27;;
8889;SDS011;4481;43.406;24.454;2023-04-08T05:14:56;27.20;;;21.47;;
8889;SDS011;4481;43.406;24.454;2023-04-08T05:17:23;28.53;;;22.33;;
8889;SDS011;4481;43.406;24.454;2023-04-08T05:19:49;26.20;;;20.83;;
8889;SDS011;4481;43.406;24.454;2023-04-08T05:22:16;24.23;;;20.20;;
8889;SDS011;4481;43.406;24.454;2023-04-08T05:24:42;26.37;;;21.03;;
8889;SDS011;4481;43.406;24.454;2023-04-08T05:27:09;27.00;;;21.63;;
8889;SDS011;4481;43.406;24.454;2023-04-08T05:29:35;28.13;;;20.67;;
8889;SDS011;4481;43.406;24.454;2023-04-08T05:32:01;27.07;;;21.07;;
8889;SDS011;4481;43.406;24.454;2023-04-08T05:34:27;31.20;;;21.50;;
8889;SDS011;4481;43.406;24.454;2023-04-08T05:36:55;26.90;;;20.57;;
8889;SDS011;4481;43.406;24.454;2023-04-08T05:39:22;24.43;;;20.63;;
8889;SDS011;4481;43.406;24.454;2023-04-08T05:41:48;27.57;;;23.67;;
8889;SDS011;4481;43.406;24.454;2023-04-08T05:44:14;29.70;;;21.63;;
8889;SDS011;4481;43.406;24.454;2023-04-08T05:46:41;29.77;;;20.67;;
8889;SDS011;4481;43.406;24.454;2023-04-08T05:49:07;28.43;;;21.87;;
8889;SDS011;4481;43.406;24.454;2023-04-08T05:51:33;23.90;;;19.13;;
8889;SDS011;4481;43.406;24.454;2023-04-08T05:53:59;23.40;;;20.50;;
8889;SDS011;4481;43.406;24.454;2023-04-08T05:56:25;22.97;;;19.13;;
8889;SDS011;4481;43.406;24.454;2023-04-08T05:58:51;24.97;;;19.00;;
8889;SDS011;4481;43.406;24.454;2023-04-08T06:01:18;25.30;;;19.80;;
8889;SDS011;4481;43.406;24.454;2023-04-08T06:03:44;21.73;;;18.60;;
8889;SDS011;4481;43.406;24.454;2023-04-08T06:06:11;23.37;;;18.23;;
8889;SDS011;4481;43.406;24.454;2023-04-08T06:08:37;24.13;;;17.97;;
8889;SDS011;4481;43.406;24.454;2023-04-08T06:11:03;25.83;;;19.47;;
8889;SDS011;4481;43.406;24.454;2023-04-08T06:13:29;24.03;;;19.47;;
8889;SDS011;4481;43.406;24.454;2023-04-08T06:15:56;22.23;;;19.37;;
8889;SDS011;4481;43.406;24.454;2023-04-08T06:18:22;23.80;;;18.53;;
8889;SDS011;4481;43.406;24.454;2023-04-08T06:20:49;24.77;;;18.90;;
8889;SDS011;4481;43.406;24.454;2023-04-08T06:23:15;22.37;;;18.27;;
8889;SDS011;4481;43.406;24.454;2023-04-08T06:25:41;22.53;;;18.07;;
8889;SDS011;4481;43.406;24.454;2023-04-08T06:28:07;21.43;;;19.10;;
8889;SDS011;4481;43.406;24.454;2023-04-08T06:30:33;23.93;;;19.70;;
8889;SDS011;4481;43.406;24.454;2023-04-08T06:32:59;18.90;;;16.37;;
8889;SDS011;4481;43.406;24.454;2023-04-08T06:35:26;20.83;;;17.90;;
8889;SDS011;4481;43.406;24.454;2023-04-08T06:37:52;24.50;;;18.50;;
8889;SDS011;4481;43.406;24.454;2023-04-08T06:40:19;20.37;;;16.63;;
8889;SDS011;4481;43.406;24.454;2023-04-08T06:42:45;20.10;;;16.73;;
8889;SDS011;4481;43.406;24.454;2023-04-08T06:45:11;19.10;;;16.43;;
8889;SDS011;4481;43.406;24.454;2023-04-08T06:47:37;18.57;;;15.10;;
8889;SDS011;4481;43.406;24.454;2023-04-08T06:50:04;17.70;;;15.33;;
8889;SDS011;4481;43.406;24.454;2023-04-08T06:52:31;19.60;;;15.60;;
8889;SDS011;4481;43.406;24.454;2023-04-08T06:54:57;19.43;;;15.87;;
8889;SDS011;4481;43.406;24.454;2023-04-08T06:57:24;18.10;;;14.73;;
8889;SDS011;4481;43.406;24.454;2023-04-08T06:59:50;16.97;;;14.93;;
8889;SDS011;4481;43.406;24.454;2023-04-08T07:02:17;18.33;;;13.53;;
8889;SDS011;4481;43.406;24.454;2023-04-08T07:04:43;17.13;;;15.17;;
8889;SDS011;4481;43.406;24.454;2023-04-08T07:07:09;16.30;;;14.60;;
8889;SDS011;4481;43.406;24.454;2023-04-08T07:09:36;20.97;;;13.83;;
8889;SDS011;4481;43.406;24.454;2023-04-08T07:12:02;15.93;;;13.00;;
8889;SDS011;4481;43.406;24.454;2023-04-08T07:14:29;14.70;;;13.20;;
8889;SDS011;4481;43.406;24.454;2023-04-08T07:16:55;14.97;;;13.37;;
8889;SDS011;4481;43.406;24.454;2023-04-08T07:19:21;15.20;;;13.60;;
8889;SDS011;4481;43.406;24.454;2023-04-08T07:21:48;15.93;;;13.87;;
8889;SDS011;4481;43.406;24.454;2023-04-08T07:24:14;16.57;;;13.00;;
8889;SDS011;4481;43.406;24.454;2023-04-08T07:26:41;15.67;;;14.07;;
8889;SDS011;4481;43.406;24.454;2023-04-08T07:29:07;18.20;;;16.27;;
8889;SDS011;4481;43.406;24.454;2023-04-08T07:31:33;19.00;;;14.20;;
8889;SDS011;4481;43.406;24.454;2023-04-08T07:33:59;17.07;;;15.37;;
8889;SDS011;4481;43.406;24.454;2023-04-08T07:36:25;17.10;;;15.37;;
8889;SDS011;4481;43.406;24.454;2023-04-08T07:38:52;18.73;;;14.10;;
8889;SDS011;4481;43.406;24.454;2023-04-08T07:41:18;16.53;;;14.30;;
8889;SDS011;4481;43.406;24.454;2023-04-08T07:43:45;17.57;;;14.67;;
8889;SDS011;4481;43.406;24.454;2023-04-08T07:46:12;17.10;;;14.83;;
8889;SDS011;4481;43.406;24.454;2023-04-08T07:48:38;17.07;;;13.20;;
8889;SDS011;4481;43.406;24.454;2023-04-08T07:51:04;15.67;;;14.07;;
8889;SDS011;4481;43.406;24.454;2023-04-08T07:53:31;16.30;;;13.30;;
8889;SDS011;4481;43.406;24.454;2023-04-08T07:55:58;18.17;;;14.20;;
8889;SDS011;4481;43.406;24.454;2023-04-08T07:58:24;18.27;;;15.13;;
8889;SDS011;4481;43.406;24.454;2023-04-08T08:00:52;17.67;;;14.90;;
8889;SDS011;4481;43.406;24.454;2023-04-08T08:03:18;15.10;;;13.60;;
8889;SDS011;4481;43.406;24.454;2023-04-08T08:05:44;16.33;;;13.03;;
8889;SDS011;4481;43.406;24.454;2023-04-08T08:08:10;16.87;;;12.93;;
8889;SDS011;4481;43.406;24.454;2023-04-08T08:10:36;25.00;;;14.87;;
8889;SDS011;4481;43.406;24.454;2023-04-08T08:13:03;15.50;;;14.00;;
8889;SDS011;4481;43.406;24.454;2023-04-08T08:15:29;16.20;;;13.47;;
8889;SDS011;4481;43.406;24.454;2023-04-08T08:17:56;18.70;;;14.20;;
8889;SDS011;4481;43.406;24.454;2023-04-08T08:20:22;14.77;;;12.87;;
8889;SDS011;4481;43.406;24.454;2023-04-08T08:22:48;13.03;;;11.40;;
8889;SDS011;4481;43.406;24.454;2023-04-08T08:25:14;15.40;;;13.83;;
8889;SDS011;4481;43.406;24.454;2023-04-08T08:27:41;15.17;;;13.53;;
8889;SDS011;4481;43.406;24.454;2023-04-08T08:30:08;14.73;;;12.70;;
8889;SDS011;4481;43.406;24.454;2023-04-08T08:32:34;15.70;;;13.20;;
8889;SDS011;4481;43.406;24.454;2023-04-08T08:35:02;13.27;;;11.80;;
8889;SDS011;4481;43.406;24.454;2023-04-08T08:37:28;17.53;;;12.37;;
8889;SDS011;4481;43.406;24.454;2023-04-08T08:39:54;14.83;;;12.17;;
8889;SDS011;4481;43.406;24.454;2023-04-08T08:42:21;14.87;;;13.13;;
8889;SDS011;4481;43.406;24.454;2023-04-08T08:44:48;13.63;;;11.30;;
8889;SDS011;4481;43.406;24.454;2023-04-08T08:47:14;14.93;;;11.80;;
8889;SDS011;4481;43.406;24.454;2023-04-08T08:49:41;14.10;;;11.67;;
8889;SDS011;4481;43.406;24.454;2023-04-08T08:52:08;13.57;;;11.87;;
8889;SDS011;4481;43.406;24.454;2023-04-08T08:54:35;14.87;;;12.10;;
8889;SDS011;4481;43.406;24.454;2023-04-08T08:57:02;12.93;;;11.67;;
8889;SDS011;4481;43.406;24.454;2023-04-08T08:59:28;13.30;;;11.90;;
8889;SDS011;4481;43.406;24.454;2023-04-08T09:01:54;11.93;;;10.73;;
8889;SDS011;4481;43.406;24.454;2023-04-08T09:04:20;15.03;;;10.63;;
8889;SDS011;4481;43.406;24.454;2023-04-08T09:06:47;15.37;;;12.60;;
8889;SDS011;4481;43.406;24.454;2023-04-08T09:09:15;14.37;;;10.93;;
8889;SDS011;4481;43.406;24.454;2023-04-08T09:11:42;12.90;;;11.60;;
8889;SDS011;4481;43.406;24.454;2023-04-08T09:14:16;12.80;;;10.53;;
8889;SDS011;4481;43.406;24.454;2023-04-08T09:16:43;15.00;;;11.37;;
8889;SDS011;4481;43.406;24.454;2023-04-08T09:19:10;13.50;;;11.90;;
8889;SDS011;4481;43.406;24.454;2023-04-08T09:21:36;12.67;;;10.73;;
8889;SDS011;4481;43.406;24.454;2023-04-08T09:24:05;12.57;;;9.90;;
8889;SDS011;4481;43.406;24.454;2023-04-08T09:26:32;11.17;;;9.97;;
8889;SDS011;4481;43.406;24.454;2023-04-08T09:29:00;12.40;;;10.93;;
8889;SDS011;4481;43.406;24.454;2023-04-08T09:31:27;11.30;;;10.20;;
8889;SDS011;4481;43.406;24.454;2023-04-08T09:33:55;12.80;;;10.47;;
8889;SDS011;4481;43.406;24.454;2023-04-08T09:36:22;12.13;;;10.87;;
8889;SDS011;4481;43.406;24.454;2023-04-08T09:38:50;11.87;;;10.57;;
8889;SDS011;4481;43.406;24.454;2023-04-08T09:41:17;14.73;;;12.10;;
8889;SDS011;4481;43.406;24.454;2023-04-08T09:43:47;12.60;;;11.23;;
8889;SDS011;4481;43.406;24.454;2023-04-08T09:46:14;14.93;;;13.30;;
8889;SDS011;4481;43.406;24.454;2023-04-08T09:48:45;13.00;;;11.57;;
8889;SDS011;4481;43.406;24.454;2023-04-08T09:51:31;14.07;;;11.60;;
8889;SDS011;4481;43.406;24.454;2023-04-08T09:54:02;13.07;;;11.77;;
8889;SDS011;4481;43.406;24.454;2023-04-08T09:56:38;13.97;;;12.50;;
8889;SDS011;4481;43.406;24.454;2023-04-08T09:59:10;14.03;;;11.70;;
8889;SDS011;4481;43.406;24.454;2023-04-08T10:01:43;16.03;;;12.27;;
8889;SDS011;4481;43.406;24.454;2023-04-08T10:04:13;13.37;;;11.53;;
8889;SDS011;4481;43.406;24.454;2023-04-08T10:06:40;12.73;;;11.43;;
8889;SDS011;4481;43.406;24.454;2023-04-08T10:09:07;12.60;;;11.07;;
8889;SDS011;4481;43.406;24.454;2023-04-08T10:11:34;13.60;;;12.20;;
8889;SDS011;4481;43.406;24.454;2023-04-08T10:14:01;14.40;;;12.53;;
8889;SDS011;4481;43.406;24.454;2023-04-08T10:16:28;16.33;;;12.97;;
8889;SDS011;4481;43.406;24.454;2023-04-08T10:18:55;12.90;;;11.57;;
8889;SDS011;4481;43.406;24.454;2023-04-08T10:21:31;14.10;;;12.60;;
8889;SDS011;4481;43.406;24.454;2023-04-08T10:24:01;12.33;;;10.67;;
8889;SDS011;4481;43.406;24.454;2023-04-08T10:26:32;13.67;;;11.67;;
8889;SDS011;4481;43.406;24.454;2023-04-08T10:32:08;11.07;;;9.97;;
8889;SDS011;4481;43.406;24.454;2023-04-08T10:34:53;10.83;;;9.80;;
8889;SDS011;4481;43.406;24.454;2023-04-08T10:37:19;12.97;;;10.87;;
8889;SDS011;4481;43.406;24.454;2023-04-08T10:39:48;13.17;;;11.87;;
8889;SDS011;4481;43.406;24.454;2023-04-08T10:42:14;13.70;;;11.97;;
8889;SDS011;4481;43.406;24.454;2023-04-08T10:44:43;11.70;;;10.50;;
8889;SDS011;4481;43.406;24.454;2023-04-08T10:47:10;14.53;;;11.10;;
8889;SDS011;4481;43.406;24.454;2023-04-08T10:49:37;11.67;;;10.47;;
8889;SDS011;4481;43.406;24.454;2023-04-08T10:52:05;13.37;;;11.17;;
8889;SDS011;4481;43.406;24.454;2023-04-08T10:54:32;13.30;;;11.90;;
8889;SDS011;4481;43.406;24.454;2023-04-08T10:56:58;15.17;;;11.90;;
8889;SDS011;4481;43.406;24.454;2023-04-08T10:59:26;15.13;;;12.37;;
8889;SDS011;4481;43.406;24.454;2023-04-08T11:01:53;15.07;;;12.33;;
8889;SDS011;4481;43.406;24.454;2023-04-08T11:04:20;12.90;;;10.70;;
8889;SDS011;4481;43.406;24.454;2023-04-08T11:06:47;14.07;;;12.37;;
8889;SDS011;4481;43.406;24.454;2023-04-08T11:09:14;12.50;;;11.20;;
8889;SDS011;4481;43.406;24.454;2023-04-08T11:11:41;11.30;;;10.20;;
8889;SDS011;4481;43.406;24.454;2023-04-08T11:14:08;12.00;;;10.80;;
8889;SDS011;4481;43.406;24.454;2023-04-08T11:16:35;12.87;;;11.17;;
8889;SDS011;4481;43.406;24.454;2023-04-08T11:19:03;13.57;;;10.83;;
8889;SDS011;4481;43.406;24.454;2023-04-08T11:21:31;12.77;;;10.83;;
8889;SDS011;4481;43.406;24.454;2023-04-08T11:23:59;12.77;;;11.47;;
8889;SDS011;4481;43.406;24.454;2023-04-08T11:26:26;12.20;;;11.00;;
8889;SDS011;4481;43.406;24.454;2023-04-08T11:28:52;11.63;;;10.43;;
8889;SDS011;4481;43.406;24.454;2023-04-08T11:31:20;10.87;;;9.83;;
8889;SDS011;4481;43.406;24.454;2023-04-08T11:33:47;11.03;;;9.70;;
8889;SDS011;4481;43.406;24.454;2023-04-08T11:36:14;12.60;;;11.30;;
8889;SDS011;4481;43.406;24.454;2023-04-08T11:38:43;12.37;;;11.07;;
8889;SDS011;4481;43.406;24.454;2023-04-08T11:41:11;11.73;;;10.40;;
8889;SDS011;4481;43.406;24.454;2023-04-08T11:43:38;11.87;;;10.67;;
8889;SDS011;4481;43.406;24.454;2023-04-08T11:46:07;12.67;;;11.37;;
8889;SDS011;4481;43.406;24.454;2023-04-08T11:48:34;13.90;;;12.30;;
8889;SDS011;4481;43.406;24.454;2023-04-08T11:51:04;12.70;;;11.40;;
8889;SDS011;4481;43.406;24.454;2023-04-08T11:53:33;12.07;;;10.20;;
8889;SDS011;4481;43.406;24.454;2023-04-08T11:56:15;13.70;;;11.60;;
8889;SDS011;4481;43.406;24.454;2023-04-08T11:58:41;13.20;;;11.90;;
8889;SDS011;4481;43.406;24.454;2023-04-08T12:01:07;15.73;;;13.00;;
8889;SDS011;4481;43.406;24.454;2023-04-08T12:03:34;17.63;;;11.87;;
8889;SDS011;4481;43.406;24.454;2023-04-08T12:06:00;19.97;;;13.23;;
8889;SDS011;4481;43.406;24.454;2023-04-08T12:08:26;12.13;;;10.93;;
8889;SDS011;4481;43.406;24.454;2023-04-08T12:10:52;15.80;;;11.87;;
8889;SDS011;4481;43.406;24.454;2023-04-08T12:13:19;12.87;;;11.07;;
8889;SDS011;4481;43.406;24.454;2023-04-08T12:15:45;16.67;;;12.07;;
8889;SDS011;4481;43.406;24.454;2023-04-08T12:18:12;14.23;;;11.70;;
8889;SDS011;4481;43.406;24.454;2023-04-08T12:20:38;12.37;;;10.20;;
8889;SDS011;4481;43.406;24.454;2023-04-08T12:23:04;13.07;;;10.10;;
8889;SDS011;4481;43.406;24.454;2023-04-08T12:25:32;13.20;;;11.03;;
8889;SDS011;4481;43.406;24.454;2023-04-08T12:27:58;13.93;;;11.10;;
8889;SDS011;4481;43.406;24.454;2023-04-08T12:30:25;14.57;;;11.87;;
8889;SDS011;4481;43.406;24.454;2023-04-08T12:32:51;12.27;;;10.97;;
8889;SDS011;4481;43.406;24.454;2023-04-08T12:35:19;12.53;;;10.80;;
8889;SDS011;4481;43.406;24.454;2023-04-08T12:37:45;12.03;;;10.73;;
8889;SDS011;4481;43.406;24.454;2023-04-08T12:40:11;11.90;;;10.47;;
8889;SDS011;4481;43.406;24.454;2023-04-08T12:42:37;11.40;;;10.27;;
8889;SDS011;4481;43.406;24.454;2023-04-08T12:45:04;13.30;;;9.73;;
8889;SDS011;4481;43.406;24.454;2023-04-08T12:47:33;11.57;;;10.37;;
8889;SDS011;4481;43.406;24.454;2023-04-08T12:49:59;18.87;;;10.77;;
8889;SDS011;4481;43.406;24.454;2023-04-08T12:52:26;13.30;;;10.17;;
8889;SDS011;4481;43.406;24.454;2023-04-08T12:54:52;10.83;;;9.60;;
8889;SDS011;4481;43.406;24.454;2023-04-08T12:57:18;11.10;;;8.80;;
8889;SDS011;4481;43.406;24.454;2023-04-08T12:59:44;10.40;;;9.43;;
8889;SDS011;4481;43.406;24.454;2023-04-08T13:02:10;9.67;;;8.67;;
8889;SDS011;4481;43.406;24.454;2023-04-08T13:04:37;11.03;;;8.80;;
8889;SDS011;4481;43.406;24.454;2023-04-08T13:07:03;10.40;;;8.77;;
8889;SDS011;4481;43.406;24.454;2023-04-08T13:09:31;9.30;;;8.10;;
8889;SDS011;4481;43.406;24.454;2023-04-08T13:11:57;12.33;;;10.03;;
8889;SDS011;4481;43.406;24.454;2023-04-08T13:14:24;10.50;;;9.43;;
8889;SDS011;4481;43.406;24.454;2023-04-08T13:16:50;12.37;;;9.97;;
8889;SDS011;4481;43.406;24.454;2023-04-08T13:19:16;12.60;;;10.17;;
8889;SDS011;4481;43.406;24.454;2023-04-08T13:21:43;11.67;;;9.53;;
8889;SDS011;4481;43.406;24.454;2023-04-08T13:24:09;11.07;;;9.87;;
8889;SDS011;4481;43.406;24.454;2023-04-08T13:26:35;11.50;;;9.53;;
8889;SDS011;4481;43.406;24.454;2023-04-08T13:29:01;12.27;;;9.33;;
8889;SDS011;4481;43.406;24.454;2023-04-08T13:31:27;11.17;;;8.90;;
8889;SDS011;4481;43.406;24.454;2023-04-08T13:33:53;10.97;;;9.17;;
8889;SDS011;4481;43.406;24.454;2023-04-08T13:36:20;9.87;;;8.87;;
8889;SDS011;4481;43.406;24.454;2023-04-08T13:38:46;10.73;;;9.57;;
8889;SDS011;4481;43.406;24.454;2023-04-08T13:41:13;11.43;;;10.23;;
8889;SDS011;4481;43.406;24.454;2023-04-08T13:43:39;9.80;;;8.90;;
8889;SDS011;4481;43.406;24.454;2023-04-08T13:46:06;10.70;;;9.60;;
8889;SDS011;4481;43.406;24.454;2023-04-08T13:48:32;10.30;;;9.30;;
8889;SDS011;4481;43.406;24.454;2023-04-08T13:50:58;9.20;;;8.37;;
8889;SDS011;4481;43.406;24.454;2023-04-08T13:53:24;10.07;;;9.03;;
8889;SDS011;4481;43.406;24.454;2023-04-08T13:55:51;10.47;;;9.17;;
8889;SDS011;4481;43.406;24.454;2023-04-08T13:58:20;10.57;;;9.47;;
8889;SDS011;4481;43.406;24.454;2023-04-08T14:00:46;10.90;;;9.17;;
8889;SDS011;4481;43.406;24.454;2023-04-08T14:03:12;10.43;;;8.87;;
8889;SDS011;4481;43.406;24.454;2023-04-08T14:05:38;10.50;;;9.37;;
8889;SDS011;4481;43.406;24.454;2023-04-08T14:08:04;10.47;;;9.37;;
8889;SDS011;4481;43.406;24.454;2023-04-08T14:10:30;10.73;;;9.23;;
8889;SDS011;4481;43.406;24.454;2023-04-08T14:12:57;10.90;;;9.90;;
8889;SDS011;4481;43.406;24.454;2023-04-08T14:15:23;18.20;;;9.73;;
8889;SDS011;4481;43.406;24.454;2023-04-08T14:17:50;12.00;;;9.83;;
8889;SDS011;4481;43.406;24.454;2023-04-08T14:20:16;13.93;;;10.23;;
8889;SDS011;4481;43.406;24.454;2023-04-08T14:22:42;10.23;;;9.17;;
8889;SDS011;4481;43.406;24.454;2023-04-08T14:25:08;10.20;;;8.97;;
8889;SDS011;4481;43.406;24.454;2023-04-08T14:27:35;12.20;;;10.67;;
8889;SDS011;4481;43.406;24.454;2023-04-08T14:30:01;14.50;;;9.77;;
8889;SDS011;4481;43.406;24.454;2023-04-08T14:32:28;11.97;;;10.43;;
8889;SDS011;4481;43.406;24.454;2023-04-08T14:34:54;12.77;;;9.93;;
8889;SDS011;4481;43.406;24.454;2023-04-08T14:37:20;11.70;;;9.63;;